sensor_id;sensor_type;location;lat;lon;timestamp;pressure;altitude;pressure_sealevel;temperature;humidity
10480;BME280;12789;42.610;23.040;2022-10-13T00:01:54;94405.75;;;7.43;100.00
10480;BME280;12789;42.610;23.040;2022-10-13T00:04:20;94401.41;;;7.43;100.00
10480;BME280;12789;42.610;23.040;2022-10-13T00:06:47;94394.72;;;7.41;100.00
10480;BME280;12789;42.610;23.040;2022-10-13T00:09:14;94399.63;;;7.21;100.00
10480;BME280;12789;42.610;23.040;2022-10-13T00:11:43;94408.16;;;7.21;100.00
10480;BME280;12789;42.610;23.040;2022-10-13T00:14:09;94389.53;;;7.18;100.00
10480;BME280;12789;42.610;23.040;2022-10-13T00:16:36;94389.25;;;7.10;100.00
10480;BME280;12789;42.610;23.040;2022-10-13T00:19:04;94392.81;;;7.32;100.00
10480;BME280;12789;42.610;23.040;2022-10-13T00:21:31;94384.47;;;7.16;100.00
10480;BME280;12789;42.610;23.040;2022-10-13T00:23:58;94386.25;;;7.03;100.00
10480;BME280;12789;42.610;23.040;2022-10-13T00:26:25;94371.22;;;6.97;100.00
10480;BME280;12789;42.610;23.040;2022-10-13T00:28:54;94374.06;;;7.05;100.00
10480;BME280;12789;42.610;23.040;2022-10-13T00:31:23;94375.63;;;7.08;100.00
10480;BME280;12789;42.610;23.040;2022-10-13T00:33:51;94375.53;;;6.97;100.00
10480;BME280;12789;42.610;23.040;2022-10-13T00:36:18;94376.16;;;7.00;100.00
10480;BME280;12789;42.610;23.040;2022-10-13T00:38:45;94377.56;;;7.17;100.00
10480;BME280;12789;42.610;23.040;2022-10-13T00:41:13;94373.06;;;7.08;100.00
10480;BME280;12789;42.610;23.040;2022-10-13T00:44:03;94369.56;;;7.09;100.00
10480;BME280;12789;42.610;23.040;2022-10-13T00:46:31;94363.13;;;7.14;100.00
10480;BME280;12789;42.610;23.040;2022-10-13T00:49:00;94367.91;;;7.08;100.00
10480;BME280;12789;42.610;23.040;2022-10-13T00:51:31;94375.00;;;7.17;100.00
10480;BME280;12789;42.610;23.040;2022-10-13T00:54:00;94365.94;;;6.99;100.00
10480;BME280;12789;42.610;23.040;2022-10-13T00:56:28;94353.25;;;6.96;100.00
10480;BME280;12789;42.610;23.040;2022-10-13T00:58:55;94359.06;;;6.87;100.00
10480;BME280;12789;42.610;23.040;2022-10-13T01:01:24;94353.09;;;6.74;100.00
10480;BME280;12789;42.610;23.040;2022-10-13T01:03:51;94352.38;;;6.72;100.00
10480;BME280;12789;42.610;23.040;2022-10-13T01:06:18;94351.66;;;6.70;100.00
10480;BME280;12789;42.610;23.040;2022-10-13T01:08:45;94363.78;;;6.80;100.00
10480;BME280;12789;42.610;23.040;2022-10-13T01:11:24;94359.91;;;6.75;100.00
10480;BME280;12789;42.610;23.040;2022-10-13T01:14:02;94356.19;;;6.79;100.00
10480;BME280;12789;42.610;23.040;2022-10-13T01:16:39;94359.47;;;6.81;100.00
10480;BME280;12789;42.610;23.040;2022-10-13T01:19:23;94347.31;;;6.83;100.00
10480;BME280;12789;42.610;23.040;2022-10-13T01:21:56;94354.31;;;6.93;100.00
10480;BME280;12789;42.610;23.040;2022-10-13T01:24:43;94358.03;;;6.64;100.00
10480;BME280;12789;42.610;23.040;2022-10-13T01:27:26;94358.66;;;6.68;100.00
10480;BME280;12789;42.610;23.040;2022-10-13T01:30:13;94359.47;;;6.68;100.00
10480;BME280;12789;42.610;23.040;2022-10-13T01:32:54;94358.84;;;6.65;100.00
10480;BME280;12789;42.610;23.040;2022-10-13T01:35:30;94361.13;;;6.57;100.00
10480;BME280;12789;42.610;23.040;2022-10-13T01:38:03;94364.03;;;6.52;100.00
10480;BME280;12789;42.610;23.040;2022-10-13T01:40:37;94361.53;;;6.51;100.00
10480;BME280;12789;42.610;23.040;2022-10-13T01:43:07;94362.56;;;6.61;100.00
10480;BME280;12789;42.610;23.040;2022-10-13T01:45:39;94363.50;;;6.60;100.00
10480;BME280;12789;42.610;23.040;2022-10-13T01:48:09;94359.25;;;6.46;100.00
10480;BME280;12789;42.610;23.040;2022-10-13T01:50:37;94365.25;;;6.59;100.00
10480;BME280;12789;42.610;23.040;2022-10-13T01:53:05;94364.63;;;6.68;100.00
10480;BME280;12789;42.610;23.040;2022-10-13T01:55:33;94359.25;;;6.59;100.00
10480;BME280;12789;42.610;23.040;2022-10-13T01:58:00;94353.53;;;6.68;100.00
10480;BME280;12789;42.610;23.040;2022-10-13T02:00:30;94349.28;;;6.67;100.00
10480;BME280;12789;42.610;23.040;2022-10-13T02:03:12;94349.28;;;6.67;100.00
10480;BME280;12789;42.610;23.040;2022-10-13T02:05:45;94355.47;;;6.52;100.00
10480;BME280;12789;42.610;23.040;2022-10-13T02:08:18;94347.53;;;6.42;100.00
10480;BME280;12789;42.610;23.040;2022-10-13T02:10:51;94353.31;;;6.46;100.00
10480;BME280;12789;42.610;23.040;2022-10-13T02:13:22;94348.97;;;6.46;100.00
10480;BME280;12789;42.610;23.040;2022-10-13T02:15:52;94347.75;;;6.52;100.00
10480;BME280;12789;42.610;23.040;2022-10-13T02:18:26;94347.94;;;6.49;100.00
10480;BME280;12789;42.610;23.040;2022-10-13T02:20:54;94345.28;;;6.38;100.00
10480;BME280;12789;42.610;23.040;2022-10-13T02:23:22;94347.94;;;6.49;100.00
10480;BME280;12789;42.610;23.040;2022-10-13T02:25:50;94340.53;;;6.57;100.00
10480;BME280;12789;42.610;23.040;2022-10-13T02:28:17;94333.09;;;6.65;100.00
10480;BME280;12789;42.610;23.040;2022-10-13T02:30:45;94335.16;;;6.60;100.00
10480;BME280;12789;42.610;23.040;2022-10-13T02:33:13;94330.63;;;6.51;100.00
10480;BME280;12789;42.610;23.040;2022-10-13T02:35:42;94333.13;;;6.52;100.00
10480;BME280;12789;42.610;23.040;2022-10-13T02:38:09;94330.84;;;6.48;100.00
10480;BME280;12789;42.610;23.040;2022-10-13T02:40:37;94330.22;;;6.44;100.00
10480;BME280;12789;42.610;23.040;2022-10-13T02:43:04;94329.28;;;6.58;100.00
10480;BME280;12789;42.610;23.040;2022-10-13T02:45:31;94326.72;;;6.58;100.00
10480;BME280;12789;42.610;23.040;2022-10-13T02:47:58;94322.41;;;6.46;100.00
10480;BME280;12789;42.610;23.040;2022-10-13T02:50:25;94320.25;;;6.52;100.00
10480;BME280;12789;42.610;23.040;2022-10-13T02:52:53;94328.56;;;6.56;100.00
10480;BME280;12789;42.610;23.040;2022-10-13T02:55:20;94321.28;;;6.62;100.00
10480;BME280;12789;42.610;23.040;2022-10-13T02:57:47;94315.41;;;6.48;100.00
10480;BME280;12789;42.610;23.040;2022-10-13T03:00:14;94314.25;;;6.52;100.00
10480;BME280;12789;42.610;23.040;2022-10-13T03:02:42;94312.53;;;6.52;100.00
10480;BME280;12789;42.610;23.040;2022-10-13T03:05:09;94325.59;;;7.69;100.00
10480;BME280;12789;42.610;23.040;2022-10-13T03:07:36;94324.97;;;6.71;100.00
10480;BME280;12789;42.610;23.040;2022-10-13T03:10:05;94322.50;;;6.44;100.00
10480;BME280;12789;42.610;23.040;2022-10-13T03:12:32;94311.88;;;6.24;100.00
10480;BME280;12789;42.610;23.040;2022-10-13T03:14:59;94326.13;;;6.42;100.00
10480;BME280;12789;42.610;23.040;2022-10-13T03:17:26;94329.63;;;6.41;100.00
10480;BME280;12789;42.610;23.040;2022-10-13T03:19:53;94332.78;;;6.44;100.00
10480;BME280;12789;42.610;23.040;2022-10-13T03:22:20;94325.06;;;6.57;100.00
10480;BME280;12789;42.610;23.040;2022-10-13T03:24:47;94330.13;;;6.46;100.00
10480;BME280;12789;42.610;23.040;2022-10-13T03:27:15;94328.28;;;6.48;100.00
10480;BME280;12789;42.610;23.040;2022-10-13T03:29:42;94322.91;;;6.26;100.00
10480;BME280;12789;42.610;23.040;2022-10-13T03:32:09;94337.03;;;6.33;100.00
10480;BME280;12789;42.610;23.040;2022-10-13T03:34:36;94346.09;;;6.38;100.00
10480;BME280;12789;42.610;23.040;2022-10-13T03:37:03;94344.03;;;6.31;100.00
10480;BME280;12789;42.610;23.040;2022-10-13T03:39:30;94341.00;;;7.47;100.00
10480;BME280;12789;42.610;23.040;2022-10-13T03:41:56;94345.88;;;6.66;100.00
10480;BME280;12789;42.610;23.040;2022-10-13T03:44:25;94345.47;;;6.47;100.00
10480;BME280;12789;42.610;23.040;2022-10-13T03:46:52;94345.66;;;6.44;100.00
10480;BME280;12789;42.610;23.040;2022-10-13T03:49:19;94343.63;;;6.37;100.00
10480;BME280;12789;42.610;23.040;2022-10-13T03:51:46;94342.19;;;6.33;100.00
10480;BME280;12789;42.610;23.040;2022-10-13T03:54:13;94334.16;;;6.50;100.00
10480;BME280;12789;42.610;23.040;2022-10-13T03:56:40;94338.47;;;6.37;100.00
10480;BME280;12789;42.610;23.040;2022-10-13T03:59:10;94336.84;;;6.36;100.00
10480;BME280;12789;42.610;23.040;2022-10-13T04:01:39;94337.25;;;6.30;100.00
10480;BME280;12789;42.610;23.040;2022-10-13T04:04:06;94334.34;;;6.34;100.00
10480;BME280;12789;42.610;23.040;2022-10-13T04:06:33;94331.69;;;6.36;100.00
10480;BME280;12789;42.610;23.040;2022-10-13T04:09:00;94336.63;;;7.12;100.00
10480;BME280;12789;42.610;23.040;2022-10-13T04:11:28;94324.47;;;6.53;100.00
10480;BME280;12789;42.610;23.040;2022-10-13T04:13:55;94330.00;;;6.47;100.00
10480;BME280;12789;42.610;23.040;2022-10-13T04:16:24;94325.91;;;6.57;100.00
10480;BME280;12789;42.610;23.040;2022-10-13T04:18:55;94330.03;;;6.35;100.00
10480;BME280;12789;42.610;23.040;2022-10-13T04:21:23;94334.78;;;6.41;100.00
10480;BME280;12789;42.610;23.040;2022-10-13T04:23:50;94337.97;;;6.32;100.00
10480;BME280;12789;42.610;23.040;2022-10-13T04:26:19;94330.63;;;6.38;100.00
10480;BME280;12789;42.610;23.040;2022-10-13T04:28:48;94326.75;;;6.33;100.00
10480;BME280;12789;42.610;23.040;2022-10-13T04:31:16;94310.75;;;6.28;100.00
10480;BME280;12789;42.610;23.040;2022-10-13T04:33:42;94334.97;;;6.38;100.00
10480;BME280;12789;42.610;23.040;2022-10-13T04:36:12;94314.16;;;6.16;100.00
10480;BME280;12789;42.610;23.040;2022-10-13T04:38:40;94320.25;;;6.40;100.00
10480;BME280;12789;42.610;23.040;2022-10-13T04:41:09;94318.69;;;6.50;100.00
10480;BME280;12789;42.610;23.040;2022-10-13T04:43:36;94313.75;;;6.47;100.00
10480;BME280;12789;42.610;23.040;2022-10-13T04:46:04;94322.19;;;6.61;100.00
10480;BME280;12789;42.610;23.040;2022-10-13T04:48:32;94321.91;;;6.53;100.00
10480;BME280;12789;42.610;23.040;2022-10-13T04:51:00;94326.41;;;6.37;100.00
10480;BME280;12789;42.610;23.040;2022-10-13T04:53:28;94315.09;;;6.52;100.00
10480;BME280;12789;42.610;23.040;2022-10-13T04:55:58;94333.09;;;6.77;100.00
10480;BME280;12789;42.610;23.040;2022-10-13T04:58:26;94334.28;;;6.97;100.00
10480;BME280;12789;42.610;23.040;2022-10-13T05:00:52;94336.38;;;6.92;100.00
10480;BME280;12789;42.610;23.040;2022-10-13T05:03:20;94337.81;;;6.96;100.00
10480;BME280;12789;42.610;23.040;2022-10-13T05:05:46;94337.38;;;7.02;100.00
10480;BME280;12789;42.610;23.040;2022-10-13T05:08:13;94336.34;;;7.04;100.00
10480;BME280;12789;42.610;23.040;2022-10-13T05:10:42;94331.69;;;7.09;100.00
10480;BME280;12789;42.610;23.040;2022-10-13T05:13:08;94344.19;;;7.03;100.00
10480;BME280;12789;42.610;23.040;2022-10-13T05:15:37;94343.25;;;7.04;100.00
10480;BME280;12789;42.610;23.040;2022-10-13T05:18:04;94339.66;;;7.06;100.00
10480;BME280;12789;42.610;23.040;2022-10-13T05:20:31;94349.50;;;7.25;100.00
10480;BME280;12789;42.610;23.040;2022-10-13T05:22:58;94352.16;;;7.35;100.00
10480;BME280;12789;42.610;23.040;2022-10-13T05:25:25;94354.19;;;7.43;100.00
10480;BME280;12789;42.610;23.040;2022-10-13T05:27:53;94349.44;;;7.49;100.00
10480;BME280;12789;42.610;23.040;2022-10-13T05:30:20;94359.56;;;7.40;100.00
10480;BME280;12789;42.610;23.040;2022-10-13T05:32:47;94368.47;;;7.24;100.00
10480;BME280;12789;42.610;23.040;2022-10-13T05:35:14;94358.19;;;7.47;100.00
10480;BME280;12789;42.610;23.040;2022-10-13T05:37:40;94345.97;;;7.38;100.00
10480;BME280;12789;42.610;23.040;2022-10-13T05:40:08;94355.13;;;7.65;100.00
10480;BME280;12789;42.610;23.040;2022-10-13T05:42:35;94362.22;;;7.74;100.00
10480;BME280;12789;42.610;23.040;2022-10-13T05:45:07;94358.13;;;7.72;100.00
10480;BME280;12789;42.610;23.040;2022-10-13T05:47:35;94361.28;;;7.75;100.00
10480;BME280;12789;42.610;23.040;2022-10-13T05:50:02;94371.31;;;7.91;100.00
10480;BME280;12789;42.610;23.040;2022-10-13T05:52:31;94370.13;;;7.84;100.00
10480;BME280;12789;42.610;23.040;2022-10-13T05:55:02;94369.59;;;7.91;100.00
10480;BME280;12789;42.610;23.040;2022-10-13T05:57:30;94367.72;;;7.93;100.00
10480;BME280;12789;42.610;23.040;2022-10-13T06:00:02;94368.59;;;8.05;100.00
10480;BME280;12789;42.610;23.040;2022-10-13T06:02:33;94370.59;;;8.12;100.00
10480;BME280;12789;42.610;23.040;2022-10-13T06:05:03;94358.19;;;8.17;100.00
10480;BME280;12789;42.610;23.040;2022-10-13T06:07:33;94363.41;;;8.28;100.00
10480;BME280;12789;42.610;23.040;2022-10-13T06:10:00;94359.19;;;8.27;100.00
10480;BME280;12789;42.610;23.040;2022-10-13T06:12:27;94365.09;;;8.51;100.00
10480;BME280;12789;42.610;23.040;2022-10-13T06:14:54;94357.28;;;8.64;100.00
10480;BME280;12789;42.610;23.040;2022-10-13T06:17:21;94360.94;;;8.72;100.00
10480;BME280;12789;42.610;23.040;2022-10-13T06:19:50;94360.94;;;8.72;100.00
10480;BME280;12789;42.610;23.040;2022-10-13T06:22:17;94365.16;;;8.84;100.00
10480;BME280;12789;42.610;23.040;2022-10-13T06:24:43;94361.16;;;8.69;100.00
10480;BME280;12789;42.610;23.040;2022-10-13T06:27:11;94362.59;;;8.84;100.00
10480;BME280;12789;42.610;23.040;2022-10-13T06:29:38;94363.53;;;9.05;100.00
10480;BME280;12789;42.610;23.040;2022-10-13T06:32:05;94363.53;;;9.16;100.00
10480;BME280;12789;42.610;23.040;2022-10-13T06:34:32;94362.59;;;9.17;100.00
10480;BME280;12789;42.610;23.040;2022-10-13T06:37:00;94351.28;;;9.29;100.00
10480;BME280;12789;42.610;23.040;2022-10-13T06:39:27;94356.47;;;9.29;100.00
10480;BME280;12789;42.610;23.040;2022-10-13T06:41:54;94338.38;;;9.29;100.00
10480;BME280;12789;42.610;23.040;2022-10-13T06:44:21;94356.69;;;9.48;100.00
10480;BME280;12789;42.610;23.040;2022-10-13T06:46:48;94359.97;;;9.50;100.00
10480;BME280;12789;42.610;23.040;2022-10-13T06:49:15;94361.84;;;9.59;100.00
10480;BME280;12789;42.610;23.040;2022-10-13T06:51:42;94359.97;;;9.39;100.00
10480;BME280;12789;42.610;23.040;2022-10-13T06:54:10;94349.28;;;9.21;100.00
10480;BME280;12789;42.610;23.040;2022-10-13T06:56:37;94361.69;;;9.60;100.00
10480;BME280;12789;42.610;23.040;2022-10-13T06:59:04;94356.38;;;9.84;100.00
10480;BME280;12789;42.610;23.040;2022-10-13T07:01:31;94352.81;;;9.96;100.00
10480;BME280;12789;42.610;23.040;2022-10-13T07:03:58;94351.06;;;9.85;100.00
10480;BME280;12789;42.610;23.040;2022-10-13T07:06:25;94346.34;;;10.01;100.00
10480;BME280;12789;42.610;23.040;2022-10-13T07:08:52;94358.78;;;9.96;100.00
10480;BME280;12789;42.610;23.040;2022-10-13T07:11:20;94349.06;;;9.89;100.00
10480;BME280;12789;42.610;23.040;2022-10-13T07:13:47;94335.16;;;10.01;100.00
10480;BME280;12789;42.610;23.040;2022-10-13T07:16:14;94356.94;;;10.30;100.00
10480;BME280;12789;42.610;23.040;2022-10-13T07:18:41;94341.13;;;10.73;100.00
10480;BME280;12789;42.610;23.040;2022-10-13T07:21:08;94346.06;;;10.76;100.00
10480;BME280;12789;42.610;23.040;2022-10-13T07:23:35;94342.25;;;10.80;100.00
10480;BME280;12789;42.610;23.040;2022-10-13T07:26:06;94350.13;;;11.29;100.00
10480;BME280;12789;42.610;23.040;2022-10-13T07:28:34;94349.94;;;11.51;100.00
10480;BME280;12789;42.610;23.040;2022-10-13T07:31:06;94344.59;;;11.53;100.00
10480;BME280;12789;42.610;23.040;2022-10-13T07:33:35;94334.66;;;10.88;100.00
10480;BME280;12789;42.610;23.040;2022-10-13T07:36:02;94339.00;;;11.18;100.00
10480;BME280;12789;42.610;23.040;2022-10-13T07:38:29;94332.75;;;10.90;100.00
10480;BME280;12789;42.610;23.040;2022-10-13T07:40:59;94338.25;;;11.36;100.00
10480;BME280;12789;42.610;23.040;2022-10-13T07:43:25;94335.28;;;11.80;100.00
10480;BME280;12789;42.610;23.040;2022-10-13T07:45:54;94350.63;;;12.02;100.00
10480;BME280;12789;42.610;23.040;2022-10-13T07:48:23;94345.00;;;11.97;100.00
10480;BME280;12789;42.610;23.040;2022-10-13T07:50:50;94340.84;;;11.66;100.00
10480;BME280;12789;42.610;23.040;2022-10-13T07:53:17;94342.91;;;11.72;100.00
10480;BME280;12789;42.610;23.040;2022-10-13T07:55:44;94340.50;;;12.27;100.00
10480;BME280;12789;42.610;23.040;2022-10-13T07:58:11;94337.34;;;12.43;100.00
10480;BME280;12789;42.610;23.040;2022-10-13T08:00:38;94341.19;;;12.58;100.00
10480;BME280;12789;42.610;23.040;2022-10-13T08:03:07;94327.47;;;12.56;100.00
10480;BME280;12789;42.610;23.040;2022-10-13T08:05:35;94321.81;;;12.98;100.00
10480;BME280;12789;42.610;23.040;2022-10-13T08:08:02;94320.28;;;13.05;100.00
10480;BME280;12789;42.610;23.040;2022-10-13T08:10:29;94314.13;;;13.43;100.00
10480;BME280;12789;42.610;23.040;2022-10-13T08:12:56;94315.16;;;13.23;100.00
10480;BME280;12789;42.610;23.040;2022-10-13T08:15:23;94312.88;;;13.46;100.00
10480;BME280;12789;42.610;23.040;2022-10-13T08:17:50;94318.44;;;13.78;100.00
10480;BME280;12789;42.610;23.040;2022-10-13T08:20:18;94317.25;;;13.46;100.00
10480;BME280;12789;42.610;23.040;2022-10-13T08:22:46;94316.97;;;13.93;100.00
10480;BME280;12789;42.610;23.040;2022-10-13T08:25:13;94309.38;;;13.82;100.00
10480;BME280;12789;42.610;23.040;2022-10-13T08:27:40;94289.88;;;13.86;100.00
10480;BME280;12789;42.610;23.040;2022-10-13T08:30:09;94312.88;;;14.08;100.00
10480;BME280;12789;42.610;23.040;2022-10-13T08:32:36;94312.09;;;14.43;100.00
10480;BME280;12789;42.610;23.040;2022-10-13T08:35:03;94305.66;;;14.02;100.00
10480;BME280;12789;42.610;23.040;2022-10-13T08:37:32;94300.25;;;14.13;100.00
10480;BME280;12789;42.610;23.040;2022-10-13T08:39:59;94307.00;;;14.06;100.00
10480;BME280;12789;42.610;23.040;2022-10-13T08:42:26;94314.47;;;14.54;100.00
10480;BME280;12789;42.610;23.040;2022-10-13T08:44:56;94306.19;;;14.58;100.00
10480;BME280;12789;42.610;23.040;2022-10-13T08:47:39;94292.34;;;14.83;100.00
10480;BME280;12789;42.610;23.040;2022-10-13T08:50:12;94302.84;;;15.50;100.00
10480;BME280;12789;42.610;23.040;2022-10-13T08:52:47;94283.06;;;15.14;100.00
10480;BME280;12789;42.610;23.040;2022-10-13T08:55:23;94277.44;;;15.68;100.00
10480;BME280;12789;42.610;23.040;2022-10-13T08:57:51;94275.41;;;15.46;100.00
10480;BME280;12789;42.610;23.040;2022-10-13T09:00:18;94279.84;;;16.27;100.00
10480;BME280;12789;42.610;23.040;2022-10-13T09:02:45;94272.38;;;16.71;100.00
10480;BME280;12789;42.610;23.040;2022-10-13T09:05:18;94274.94;;;16.24;100.00
10480;BME280;12789;42.610;23.040;2022-10-13T09:07:50;94278.84;;;16.04;100.00
10480;BME280;12789;42.610;23.040;2022-10-13T09:10:18;94262.88;;;17.49;100.00
10480;BME280;12789;42.610;23.040;2022-10-13T09:12:45;94246.06;;;17.35;100.00
10480;BME280;12789;42.610;23.040;2022-10-13T09:15:11;94251.59;;;17.79;100.00
10480;BME280;12789;42.610;23.040;2022-10-13T09:17:39;94246.06;;;17.35;100.00
10480;BME280;12789;42.610;23.040;2022-10-13T09:20:18;94236.88;;;16.29;100.00
10480;BME280;12789;42.610;23.040;2022-10-13T09:23:00;94250.06;;;15.96;100.00
10480;BME280;12789;42.610;23.040;2022-10-13T09:25:28;94253.59;;;17.22;100.00
10480;BME280;12789;42.610;23.040;2022-10-13T09:27:57;94237.72;;;18.23;100.00
10480;BME280;12789;42.610;23.040;2022-10-13T09:30:36;94236.56;;;18.99;100.00
10480;BME280;12789;42.610;23.040;2022-10-13T09:33:19;94232.78;;;17.75;100.00
10480;BME280;12789;42.610;23.040;2022-10-13T09:35:48;94225.03;;;18.04;100.00
10480;BME280;12789;42.610;23.040;2022-10-13T09:38:18;94230.94;;;18.06;100.00
10480;BME280;12789;42.610;23.040;2022-10-13T09:40:56;94226.66;;;17.83;100.00
10480;BME280;12789;42.610;23.040;2022-10-13T09:43:28;94234.88;;;18.02;100.00
10480;BME280;12789;42.610;23.040;2022-10-13T09:45:57;94215.13;;;17.61;100.00
10480;BME280;12789;42.610;23.040;2022-10-13T09:48:26;94223.75;;;18.00;91.97
10480;BME280;12789;42.610;23.040;2022-10-13T09:50:55;94225.41;;;18.83;89.26
10480;BME280;12789;42.610;23.040;2022-10-13T09:53:29;94228.88;;;17.71;91.67
10480;BME280;12789;42.610;23.040;2022-10-13T09:56:17;94220.50;;;18.43;86.84
10480;BME280;12789;42.610;23.040;2022-10-13T09:58:49;94211.47;;;18.01;85.92
10480;BME280;12789;42.610;23.040;2022-10-13T10:01:23;94216.16;;;17.52;87.98
10480;BME280;12789;42.610;23.040;2022-10-13T10:03:52;94215.88;;;18.00;88.15
10480;BME280;12789;42.610;23.040;2022-10-13T10:06:21;94209.69;;;17.71;87.47
10480;BME280;12789;42.610;23.040;2022-10-13T10:08:53;94203.41;;;18.24;86.18
10480;BME280;12789;42.610;23.040;2022-10-13T10:11:27;94199.47;;;18.51;84.43
10480;BME280;12789;42.610;23.040;2022-10-13T10:13:55;94192.47;;;18.95;83.57
10480;BME280;12789;42.610;23.040;2022-10-13T10:16:28;94189.38;;;19.63;83.13
10480;BME280;12789;42.610;23.040;2022-10-13T10:19:00;94187.25;;;19.94;86.89
10480;BME280;12789;42.610;23.040;2022-10-13T10:21:35;94180.47;;;20.42;86.15
10480;BME280;12789;42.610;23.040;2022-10-13T10:24:11;94181.78;;;21.01;87.81
10480;BME280;12789;42.610;23.040;2022-10-13T10:26:47;94175.66;;;20.45;84.52
10480;BME280;12789;42.610;23.040;2022-10-13T10:29:28;94175.72;;;19.74;85.03
10480;BME280;12789;42.610;23.040;2022-10-13T10:32:20;94171.78;;;20.20;83.48
10480;BME280;12789;42.610;23.040;2022-10-13T10:34:56;94160.25;;;20.97;80.45
10480;BME280;12789;42.610;23.040;2022-10-13T10:37:38;94148.94;;;21.03;80.07
10480;BME280;12789;42.610;23.040;2022-10-13T10:40:19;94148.63;;;20.64;76.17
10480;BME280;12789;42.610;23.040;2022-10-13T10:45:39;94141.88;;;21.10;77.09
10480;BME280;12789;42.610;23.040;2022-10-13T10:48:13;94128.00;;;21.95;76.74
10480;BME280;12789;42.610;23.040;2022-10-13T10:50:43;94130.59;;;21.63;76.85
10480;BME280;12789;42.610;23.040;2022-10-13T10:53:15;94131.09;;;21.52;77.43
10480;BME280;12789;42.610;23.040;2022-10-13T10:55:52;94133.38;;;19.69;75.42
10480;BME280;12789;42.610;23.040;2022-10-13T10:58:26;94124.81;;;19.47;78.76
10480;BME280;12789;42.610;23.040;2022-10-13T11:01:05;94125.16;;;19.58;76.31
10480;BME280;12789;42.610;23.040;2022-10-13T11:03:40;94121.00;;;20.26;78.00
10480;BME280;12789;42.610;23.040;2022-10-13T11:06:23;94127.63;;;20.22;77.64
10480;BME280;12789;42.610;23.040;2022-10-13T11:08:51;94114.00;;;20.40;77.16
10480;BME280;12789;42.610;23.040;2022-10-13T11:11:32;94103.69;;;21.46;75.79
10480;BME280;12789;42.610;23.040;2022-10-13T11:14:00;94117.00;;;19.53;77.39
10480;BME280;12789;42.610;23.040;2022-10-13T11:17:01;94116.34;;;19.16;79.86
10480;BME280;12789;42.610;23.040;2022-10-13T11:19:30;94112.38;;;20.66;78.56
10480;BME280;12789;42.610;23.040;2022-10-13T11:22:20;94103.41;;;20.61;77.24
10480;BME280;12789;42.610;23.040;2022-10-13T11:24:56;94091.59;;;21.18;76.66
10480;BME280;12789;42.610;23.040;2022-10-13T11:27:27;94084.91;;;21.16;76.44
10480;BME280;12789;42.610;23.040;2022-10-13T11:30:04;94076.03;;;21.23;76.57
10480;BME280;12789;42.610;23.040;2022-10-13T11:32:45;94084.13;;;20.26;77.25
10480;BME280;12789;42.610;23.040;2022-10-13T11:35:23;94087.38;;;20.28;77.01
10480;BME280;12789;42.610;23.040;2022-10-13T11:38:19;94090.94;;;19.37;77.97
10480;BME280;12789;42.610;23.040;2022-10-13T11:41:02;94086.59;;;20.07;77.32
10480;BME280;12789;42.610;23.040;2022-10-13T11:43:42;94078.13;;;19.90;77.25
10480;BME280;12789;42.610;23.040;2022-10-13T11:46:24;94077.63;;;20.01;77.67
10480;BME280;12789;42.610;23.040;2022-10-13T11:49:17;94074.88;;;19.67;76.95
10480;BME280;12789;42.610;23.040;2022-10-13T11:52:01;94065.75;;;19.14;77.61
10480;BME280;12789;42.610;23.040;2022-10-13T11:54:35;94069.34;;;19.42;76.47
10480;BME280;12789;42.610;23.040;2022-10-13T11:57:17;94071.56;;;17.86;82.39
10480;BME280;12789;42.610;23.040;2022-10-13T11:59:48;94066.94;;;18.10;81.06
10480;BME280;12789;42.610;23.040;2022-10-13T12:02:16;94067.44;;;18.28;80.95
10480;BME280;12789;42.610;23.040;2022-10-13T12:04:45;94056.66;;;19.45;78.79
10480;BME280;12789;42.610;23.040;2022-10-13T12:07:25;94061.63;;;19.19;77.30
10480;BME280;12789;42.610;23.040;2022-10-13T12:09:57;94031.28;;;19.58;76.56
10480;BME280;12789;42.610;23.040;2022-10-13T12:12:24;94047.84;;;19.73;77.02
10480;BME280;12789;42.610;23.040;2022-10-13T12:14:54;94046.25;;;20.82;75.58
10480;BME280;12789;42.610;23.040;2022-10-13T12:17:26;94049.44;;;19.95;74.92
10480;BME280;12789;42.610;23.040;2022-10-13T12:19:55;94053.06;;;19.94;75.82
10480;BME280;12789;42.610;23.040;2022-10-13T12:22:23;94051.00;;;20.11;73.60
10480;BME280;12789;42.610;23.040;2022-10-13T12:24:58;94047.06;;;20.55;73.44
10480;BME280;12789;42.610;23.040;2022-10-13T12:27:26;94045.94;;;19.26;76.24
10480;BME280;12789;42.610;23.040;2022-10-13T12:29:54;94045.72;;;21.06;74.04
10480;BME280;12789;42.610;23.040;2022-10-13T12:32:23;94037.22;;;20.70;71.98
10480;BME280;12789;42.610;23.040;2022-10-13T12:34:50;94038.06;;;20.77;72.77
10480;BME280;12789;42.610;23.040;2022-10-13T12:37:24;94009.72;;;21.26;72.49
10480;BME280;12789;42.610;23.040;2022-10-13T12:39:53;93999.16;;;20.79;72.35
10480;BME280;12789;42.610;23.040;2022-10-13T12:42:28;94016.13;;;21.64;71.15
10480;BME280;12789;42.610;23.040;2022-10-13T12:44:58;94012.31;;;20.79;71.80
10480;BME280;12789;42.610;23.040;2022-10-13T12:47:38;94024.03;;;20.36;71.50
10480;BME280;12789;42.610;23.040;2022-10-13T12:50:30;94017.50;;;20.94;72.04
10480;BME280;12789;42.610;23.040;2022-10-13T12:53:08;94013.19;;;21.46;69.57
10480;BME280;12789;42.610;23.040;2022-10-13T12:55:46;94025.88;;;22.48;70.26
10480;BME280;12789;42.610;23.040;2022-10-13T12:58:18;94013.19;;;21.33;68.64
10480;BME280;12789;42.610;23.040;2022-10-13T13:00:56;94008.38;;;22.14;71.32
10480;BME280;12789;42.610;23.040;2022-10-13T13:03:27;93987.31;;;23.41;67.36
10480;BME280;12789;42.610;23.040;2022-10-13T13:06:09;93989.69;;;23.11;65.16
10480;BME280;12789;42.610;23.040;2022-10-13T13:08:39;93994.53;;;22.58;67.92